Time;durP1;ratioP1;P1;durP2;ratioP2;P2;SDS_P1;SDS_P2;PMS_P1;PMS_P2;Temp;Humidity;BMP_temperature;BMP_pressure;BME280_temperature;BME280_humidity;BME280_pressure;Samples;Min_cycle;Max_cycle;Signal;HPM_P1;HPM_P2
2023/08/15 00:01:43;;;;;;;11.15;4.38;;;19.60;99.90;;;;;;5092148;28;20044;-53
2023/08/15 00:04:08;;;;;;;7.75;4.00;;;19.50;99.90;;;;;;5093747;28;20553;-54
2023/08/15 00:06:34;;;;;;;4.85;3.42;;;19.50;99.90;;;;;;5091185;28;20044;-54
2023/08/15 00:09:00;;;;;;;5.93;3.72;;;19.40;99.90;;;;;;5093107;28;20040;-55
2023/08/15 00:11:26;;;;;;;8.68;4.40;;;19.40;99.90;;;;;;5095601;28;20485;-56
2023/08/15 00:13:55;;;;;;;5.97;4.32;;;19.40;99.90;;;;;;5076245;28;20052;-51
2023/08/15 00:16:21;;;;;;;7.63;4.07;;;19.30;99.90;;;;;;5093343;28;20047;-55
2023/08/15 00:18:47;;;;;;;10.48;3.53;;;19.30;99.90;;;;;;5093401;28;20047;-56
2023/08/15 00:21:12;;;;;;;6.78;3.90;;;19.20;99.90;;;;;;5093170;28;20494;-54
2023/08/15 00:23:38;;;;;;;5.40;3.45;;;19.20;99.90;;;;;;5078003;28;20035;-56
2023/08/15 00:26:04;;;;;;;9.85;4.00;;;19.20;99.90;;;;;;5094983;28;20474;-53
2023/08/15 00:28:30;;;;;;;7.13;3.90;;;19.20;99.90;;;;;;5093441;28;20054;-56
2023/08/15 00:30:55;;;;;;;9.23;4.47;;;19.20;99.90;;;;;;5081394;28;20105;-55
2023/08/15 00:33:21;;;;;;;9.68;4.63;;;19.20;99.90;;;;;;5054412;28;20076;-55
2023/08/15 00:35:47;;;;;;;11.88;4.25;;;19.20;99.90;;;;;;5055600;28;20152;-55
2023/08/15 00:38:12;;;;;;;5.68;3.85;;;19.20;99.90;;;;;;5073651;28;20542;-55
2023/08/15 00:40:41;;;;;;;6.95;4.22;;;19.20;99.90;;;;;;5072274;28;20043;-55
2023/08/15 00:43:09;;;;;;;11.07;4.70;;;19.20;99.90;;;;;;5071752;28;20131;-57
2023/08/15 00:45:39;;;;;;;8.07;4.25;;;19.20;99.90;;;;;;5073692;28;20040;-55
2023/08/15 00:48:06;;;;;;;9.60;4.50;;;19.20;99.90;;;;;;5072220;28;20132;-55
2023/08/15 00:50:33;;;;;;;12.73;5.15;;;19.20;99.90;;;;;;5057502;28;20049;-54
2023/08/15 00:53:00;;;;;;;6.78;4.22;;;19.20;99.90;;;;;;5072065;28;20032;-56
2023/08/15 00:55:27;;;;;;;10.75;5.00;;;19.20;99.90;;;;;;5072922;28;20040;-55
2023/08/15 00:57:53;;;;;;;11.77;5.70;;;19.20;99.90;;;;;;5070723;28;20429;-55
2023/08/15 01:00:19;;;;;;;9.10;5.55;;;19.20;99.90;;;;;;5056826;28;20036;-55
2023/08/15 01:02:45;;;;;;;10.13;5.03;;;19.30;99.90;;;;;;5079806;28;20113;-55
2023/08/15 01:05:15;;;;;;;11.70;5.63;;;19.30;99.90;;;;;;5068624;28;20044;-54
2023/08/15 01:07:41;;;;;;;11.88;4.82;;;19.30;99.90;;;;;;5059139;28;20533;-56
2023/08/15 01:10:07;;;;;;;9.68;5.10;;;19.30;99.90;;;;;;5077970;28;20086;-55
2023/08/15 01:12:46;;;;;;;11.10;4.97;;;19.30;99.90;;;;;;5077968;28;20079;-55
2023/08/15 01:15:18;;;;;;;8.05;4.97;;;19.30;99.90;;;;;;5075112;28;20036;-56
2023/08/15 01:17:48;;;;;;;13.32;4.97;;;19.30;99.90;;;;;;5077630;28;20036;-56
2023/08/15 01:20:20;;;;;;;9.93;5.20;;;19.30;99.90;;;;;;5076912;28;20047;-55
2023/08/15 01:22:49;;;;;;;14.25;5.22;;;19.30;99.90;;;;;;5076040;28;20083;-55
2023/08/15 01:25:15;;;;;;;8.93;5.00;;;19.30;99.90;;;;;;5061463;28;20040;-54
2023/08/15 01:27:40;;;;;;;11.95;5.50;;;19.30;99.90;;;;;;5076067;28;20044;-55
2023/08/15 01:30:07;;;;;;;12.80;5.80;;;19.30;99.90;;;;;;5081260;28;20047;-54
2023/08/15 01:32:39;;;;;;;9.75;5.70;;;19.30;99.90;;;;;;5098977;28;20050;-53
2023/08/15 01:35:13;;;;;;;10.32;5.35;;;19.30;99.90;;;;;;5067300;28;20089;-52
2023/08/15 01:37:47;;;;;;;10.05;5.47;;;19.30;99.90;;;;;;5097501;28;20047;-55
2023/08/15 01:40:16;;;;;;;13.82;5.53;;;19.30;99.90;;;;;;5080624;28;20582;-56
2023/08/15 01:42:42;;;;;;;11.88;5.63;;;19.30;99.90;;;;;;5097022;28;20441;-55
2023/08/15 01:45:10;;;;;;;10.48;5.35;;;19.30;99.90;;;;;;5098312;28;20527;-56
2023/08/15 01:47:36;;;;;;;11.68;5.82;;;19.20;99.90;;;;;;5099016;28;20054;-55
2023/08/15 01:50:02;;;;;;;10.82;5.38;;;19.30;99.90;;;;;;5079571;28;20043;-55
2023/08/15 01:52:28;;;;;;;11.50;5.40;;;19.20;99.90;;;;;;5099035;28;20032;-53
2023/08/15 01:54:53;;;;;;;9.80;5.30;;;19.20;99.90;;;;;;5098455;28;20358;-55
2023/08/15 01:57:19;;;;;;;7.88;4.85;;;19.20;99.90;;;;;;5096159;28;20141;-54
2023/08/15 01:59:45;;;;;;;7.35;4.53;;;19.20;99.90;;;;;;5099002;28;20703;-54
2023/08/15 02:02:11;;;;;;;10.68;5.00;;;19.20;99.90;;;;;;5098371;28;20043;-53
2023/08/15 02:04:36;;;;;;;8.18;4.43;;;19.20;99.90;;;;;;5096619;28;20122;-54
2023/08/15 02:07:02;;;;;;;8.60;4.60;;;19.20;99.90;;;;;;5097484;28;20584;-55
2023/08/15 02:09:28;;;;;;;9.20;5.25;;;19.20;99.90;;;;;;5096508;28;20031;-55
2023/08/15 02:11:54;;;;;;;10.60;5.20;;;19.10;99.90;;;;;;5099376;28;20565;-55
2023/08/15 02:14:19;;;;;;;10.52;4.90;;;19.10;99.90;;;;;;5095613;28;20039;-56
2023/08/15 02:16:45;;;;;;;9.57;4.60;;;19.20;99.90;;;;;;5096224;28;20119;-54
2023/08/15 02:19:12;;;;;;;8.10;4.80;;;19.20;99.90;;;;;;5096957;28;20051;-55
2023/08/15 02:21:38;;;;;;;7.40;4.90;;;19.20;99.90;;;;;;5078185;28;20101;-55
2023/08/15 02:24:03;;;;;;;11.73;5.13;;;19.20;99.90;;;;;;5098274;28;20059;-54
2023/08/15 02:26:29;;;;;;;11.27;4.50;;;19.20;99.90;;;;;;5078300;28;20047;-56
2023/08/15 02:28:55;;;;;;;10.75;4.90;;;19.30;99.90;;;;;;5077515;28;20051;-55
2023/08/15 02:31:21;;;;;;;13.35;5.60;;;19.30;99.90;;;;;;5087481;28;20468;-55
2023/08/15 02:33:47;;;;;;;7.78;4.93;;;19.30;99.90;;;;;;5097148;28;20039;-56
2023/08/15 02:36:13;;;;;;;11.98;5.60;;;19.30;99.90;;;;;;5078895;28;20035;-55
2023/08/15 02:38:39;;;;;;;15.15;5.00;;;19.30;99.90;;;;;;5078403;28;20105;-56
2023/08/15 02:41:04;;;;;;;11.25;5.03;;;19.30;99.90;;;;;;5097361;28;20051;-55
2023/08/15 02:43:30;;;;;;;10.82;5.30;;;19.30;99.90;;;;;;5097101;28;20118;-54
2023/08/15 02:45:56;;;;;;;8.77;5.05;;;19.40;99.90;;;;;;5097662;28;20093;-54
2023/08/15 02:48:22;;;;;;;10.48;5.30;;;19.30;99.90;;;;;;5077549;28;20707;-54
2023/08/15 02:50:47;;;;;;;10.77;5.80;;;19.30;99.90;;;;;;5097036;28;20040;-54
2023/08/15 02:53:13;;;;;;;14.57;5.97;;;19.30;99.90;;;;;;5095613;28;20032;-53
2023/08/15 02:55:39;;;;;;;14.63;6.15;;;19.30;99.90;;;;;;5097071;28;20050;-55
2023/08/15 02:58:06;;;;;;;12.95;6.30;;;19.30;99.90;;;;;;5095353;27;20054;-56
2023/08/15 03:00:35;;;;;;;9.65;6.25;;;19.40;99.90;;;;;;5079401;28;20047;-56
2023/08/15 03:03:01;;;;;;;15.38;6.85;;;19.40;99.90;;;;;;5097614;28;20505;-56
2023/08/15 03:05:26;;;;;;;11.07;7.20;;;19.40;99.90;;;;;;5095491;28;20031;-54
2023/08/15 03:07:52;;;;;;;13.88;8.05;;;19.30;99.90;;;;;;5095556;28;20052;-57
2023/08/15 03:10:18;;;;;;;13.90;7.93;;;19.30;99.90;;;;;;5078407;28;20164;-54
2023/08/15 03:12:44;;;;;;;13.70;7.95;;;19.20;99.90;;;;;;5097088;28;20031;-53
2023/08/15 03:15:10;;;;;;;13.57;8.00;;;19.10;99.90;;;;;;5094946;28;20044;-56
2023/08/15 03:17:35;;;;;;;13.60;7.88;;;19.00;99.90;;;;;;5096815;28;20075;-57
2023/08/15 03:20:01;;;;;;;10.88;7.57;;;19.00;99.90;;;;;;5096520;28;20494;-56
2023/08/15 03:22:27;;;;;;;11.48;8.15;;;18.90;99.90;;;;;;5095193;28;20028;-55
2023/08/15 03:24:53;;;;;;;10.38;8.05;;;18.80;99.90;;;;;;5095448;28;20031;-55
2023/08/15 03:27:18;;;;;;;12.45;8.38;;;18.80;99.90;;;;;;5095855;28;20849;-55
2023/08/15 03:29:44;;;;;;;13.48;8.02;;;18.80;99.90;;;;;;5078939;28;20035;-55
2023/08/15 03:32:10;;;;;;;10.90;7.70;;;18.70;99.90;;;;;;5093721;28;20097;-55
2023/08/15 03:34:35;;;;;;;16.35;8.02;;;18.70;99.90;;;;;;5096007;28;20111;-56
2023/08/15 03:37:01;;;;;;;14.02;8.80;;;18.60;99.90;;;;;;5093554;28;20051;-55
2023/08/15 03:39:27;;;;;;;9.50;7.78;;;18.70;99.90;;;;;;5096031;28;20035;-55
2023/08/15 03:41:52;;;;;;;9.65;7.78;;;18.60;99.90;;;;;;5095508;28;20051;-55
2023/08/15 03:44:18;;;;;;;11.38;9.02;;;18.60;99.90;;;;;;5097034;28;20046;-54
2023/08/15 03:46:45;;;;;;;17.77;9.10;;;18.60;99.90;;;;;;5096176;28;20031;-54
2023/08/15 03:49:11;;;;;;;11.52;8.70;;;18.60;99.90;;;;;;5094246;28;20972;-56
2023/08/15 03:51:37;;;;;;;15.43;8.68;;;18.50;99.90;;;;;;5095601;28;20092;-55
2023/08/15 03:54:03;;;;;;;17.73;8.50;;;18.50;99.90;;;;;;5097484;28;20036;-54
2023/08/15 03:56:28;;;;;;;11.85;8.90;;;18.50;99.90;;;;;;5095041;28;20043;-55
2023/08/15 03:58:54;;;;;;;15.25;9.05;;;18.50;99.90;;;;;;5083140;28;20046;-54
2023/08/15 04:01:20;;;;;;;11.23;7.68;;;18.50;99.90;;;;;;5095314;28;20039;-56
2023/08/15 04:03:50;;;;;;;14.85;7.75;;;18.50;99.90;;;;;;5092822;28;20426;-55
2023/08/15 04:06:16;;;;;;;10.00;6.68;;;18.50;99.90;;;;;;5078522;28;20724;-53
2023/08/15 04:08:42;;;;;;;11.85;8.55;;;18.50;99.90;;;;;;5093288;28;20044;-56
2023/08/15 04:11:07;;;;;;;13.93;9.38;;;18.50;99.90;;;;;;5094871;28;20491;-53
2023/08/15 04:13:33;;;;;;;15.65;9.43;;;18.50;99.90;;;;;;5094454;28;20055;-54
2023/08/15 04:15:59;;;;;;;15.10;9.80;;;18.50;99.90;;;;;;5094212;28;20051;-56
2023/08/15 04:18:25;;;;;;;15.60;10.05;;;18.40;99.90;;;;;;5096387;28;20122;-56
2023/08/15 04:20:50;;;;;;;17.25;10.00;;;18.40;99.90;;;;;;5096084;28;20493;-55
2023/08/15 04:23:16;;;;;;;17.38;9.57;;;18.40;99.90;;;;;;5094826;28;20043;-55
2023/08/15 04:25:42;;;;;;;14.25;9.80;;;18.50;99.90;;;;;;5094229;28;20043;-55
2023/08/15 04:28:07;;;;;;;11.20;8.95;;;18.50;99.90;;;;;;5095125;28;20055;-55
2023/08/15 04:30:34;;;;;;;16.00;10.05;;;18.40;99.90;;;;;;5095171;28;20051;-56
2023/08/15 04:33:00;;;;;;;13.35;10.07;;;18.40;99.90;;;;;;5095832;28;20047;-56
2023/08/15 04:35:29;;;;;;;19.00;10.48;;;18.50;99.90;;;;;;5097405;28;20482;-55
2023/08/15 04:37:55;;;;;;;13.82;10.05;;;18.40;99.90;;;;;;5098711;28;20123;-56
2023/08/15 04:40:40;;;;;;;14.38;10.32;;;18.40;99.90;;;;;;5098809;28;20047;-54
2023/08/15 04:43:06;;;;;;;14.57;10.90;;;18.40;99.90;;;;;;5100469;28;20115;-55
2023/08/15 04:45:32;;;;;;;15.23;10.50;;;18.40;99.90;;;;;;5080639;28;20039;-54
2023/08/15 04:47:58;;;;;;;16.48;11.43;;;18.40;99.90;;;;;;5100925;28;20460;-55
2023/08/15 04:50:24;;;;;;;15.48;10.38;;;18.40;99.90;;;;;;5098964;28;20119;-55
2023/08/15 04:52:50;;;;;;;18.15;10.82;;;18.40;99.90;;;;;;5099265;28;20036;-55
2023/08/15 04:55:16;;;;;;;16.95;10.32;;;18.40;99.90;;;;;;5099724;28;20101;-55
2023/08/15 04:57:42;;;;;;;13.25;10.40;;;18.40;99.90;;;;;;5098260;28;20048;-56
2023/08/15 05:00:08;;;;;;;14.88;9.68;;;18.40;99.90;;;;;;5100572;28;20050;-53
2023/08/15 05:02:38;;;;;;;13.15;9.70;;;18.40;99.90;;;;;;5097388;28;20044;-53
2023/08/15 05:05:09;;;;;;;17.45;9.50;;;18.40;99.90;;;;;;5066040;28;20052;-56
2023/08/15 05:07:35;;;;;;;18.08;9.70;;;18.40;99.90;;;;;;5081335;28;20378;-56
2023/08/15 05:10:01;;;;;;;17.52;10.55;;;18.50;99.90;;;;;;5098638;28;20146;-55
2023/08/15 05:12:27;;;;;;;14.02;8.75;;;18.30;99.90;;;;;;5100229;28;20450;-55
2023/08/15 05:14:53;;;;;;;14.88;9.40;;;18.30;99.90;;;;;;5096695;28;20066;-53
2023/08/15 05:17:19;;;;;;;14.43;9.02;;;18.30;99.90;;;;;;5097884;27;20047;-55
2023/08/15 05:19:44;;;;;;;14.55;9.43;;;18.30;99.90;;;;;;5099140;28;20118;-55
2023/08/15 05:22:10;;;;;;;11.15;9.20;;;18.20;99.90;;;;;;5097615;28;20036;-56
2023/08/15 05:24:36;;;;;;;16.23;9.73;;;18.30;99.90;;;;;;5099395;28;20040;-54
2023/08/15 05:27:02;;;;;;;13.98;9.40;;;18.20;99.90;;;;;;5080065;28;20493;-55
2023/08/15 05:29:28;;;;;;;11.82;9.15;;;18.20;99.90;;;;;;5097491;28;20044;-54
2023/08/15 05:31:53;;;;;;;12.25;8.95;;;18.30;99.90;;;;;;5097463;27;20051;-56
2023/08/15 05:34:19;;;;;;;15.13;9.55;;;18.30;99.90;;;;;;5098382;28;20035;-54
2023/08/15 05:36:45;;;;;;;13.85;9.55;;;18.30;99.90;;;;;;5098162;28;20040;-55
2023/08/15 05:39:10;;;;;;;15.80;10.05;;;18.30;99.90;;;;;;5097853;28;20040;-55
2023/08/15 05:41:36;;;;;;;13.27;9.45;;;18.30;99.90;;;;;;5097470;28;20065;-51
2023/08/15 05:44:02;;;;;;;15.55;8.90;;;18.30;99.90;;;;;;5099191;28;20051;-55
2023/08/15 05:46:28;;;;;;;13.85;9.20;;;18.30;99.90;;;;;;5096489;28;20034;-54
2023/08/15 05:48:53;;;;;;;11.60;8.30;;;18.30;99.90;;;;;;5097589;28;20050;-55
2023/08/15 05:51:19;;;;;;;17.73;9.13;;;18.30;99.90;;;;;;5078489;28;20458;-54
2023/08/15 05:53:45;;;;;;;16.25;8.88;;;18.30;99.90;;;;;;5094707;28;20040;-54
2023/08/15 05:56:10;;;;;;;10.95;8.27;;;18.40;99.90;;;;;;5098027;28;20048;-55
2023/08/15 05:58:36;;;;;;;12.77;8.98;;;18.30;99.90;;;;;;5096667;28;20035;-52
2023/08/15 06:01:02;;;;;;;11.98;8.60;;;18.30;99.90;;;;;;5046957;28;20048;-55
2023/08/15 06:03:28;;;;;;;12.27;8.15;;;18.40;99.90;;;;;;5081036;28;20474;-56
2023/08/15 06:05:56;;;;;;;15.10;8.27;;;18.30;99.90;;;;;;5097878;28;20047;-57
2023/08/15 06:08:21;;;;;;;12.63;8.27;;;18.30;99.90;;;;;;5096982;27;20486;-53
2023/08/15 06:10:47;;;;;;;14.13;8.52;;;18.30;99.90;;;;;;5094442;28;20035;-56
2023/08/15 06:13:13;;;;;;;13.25;7.75;;;18.30;99.90;;;;;;5078219;28;20043;-56
2023/08/15 06:15:38;;;;;;;12.05;7.43;;;18.30;99.90;;;;;;5098476;28;20567;-55
2023/08/15 06:18:04;;;;;;;17.73;7.53;;;18.30;99.90;;;;;;5096699;28;20043;-54
2023/08/15 06:20:31;;;;;;;13.98;6.97;;;18.30;99.90;;;;;;5094918;28;20541;-56
2023/08/15 06:22:57;;;;;;;10.93;6.68;;;18.30;99.90;;;;;;5096985;28;20044;-54
2023/08/15 06:25:22;;;;;;;15.57;7.25;;;18.40;99.90;;;;;;5096675;28;20040;-55
2023/08/15 06:27:48;;;;;;;14.40;7.32;;;18.40;99.90;;;;;;5080241;28;20066;-54
2023/08/15 06:30:14;;;;;;;14.82;6.63;;;18.50;99.90;;;;;;5097057;28;20042;-56
2023/08/15 06:32:39;;;;;;;10.90;6.65;;;18.50;99.90;;;;;;5079443;28;20047;-52
2023/08/15 06:35:06;;;;;;;12.10;6.45;;;18.60;99.90;;;;;;5098239;28;20486;-55
2023/08/15 06:37:32;;;;;;;13.73;6.57;;;18.60;99.90;;;;;;5095864;28;20402;-54
2023/08/15 06:39:57;;;;;;;11.52;6.00;;;18.60;99.90;;;;;;5079565;28;20044;-55
2023/08/15 06:42:23;;;;;;;12.02;5.72;;;18.70;99.90;;;;;;5080328;28;20040;-55
2023/08/15 06:44:49;;;;;;;11.13;5.93;;;18.70;99.90;;;;;;5096674;28;20036;-55
2023/08/15 06:47:14;;;;;;;13.35;6.30;;;18.70;99.90;;;;;;5068838;28;20538;-55
2023/08/15 06:49:40;;;;;;;10.00;6.30;;;18.70;99.90;;;;;;5083496;28;20535;-56
2023/08/15 06:52:09;;;;;;;12.80;6.18;;;18.80;99.90;;;;;;5077478;28;20124;-54
2023/08/15 06:54:36;;;;;;;16.55;5.93;;;18.80;99.90;;;;;;5096572;28;20031;-55
2023/08/15 06:57:02;;;;;;;13.43;5.97;;;18.90;99.90;;;;;;5095489;28;20123;-54
2023/08/15 06:59:28;;;;;;;12.93;5.45;;;19.00;99.90;;;;;;5096982;28;20051;-54
2023/08/15 07:01:54;;;;;;;10.80;5.50;;;19.10;99.90;;;;;;5097111;28;20040;-56
2023/08/15 07:04:20;;;;;;;14.38;5.65;;;19.20;99.90;;;;;;5095394;28;20120;-57
2023/08/15 07:06:46;;;;;;;14.73;5.22;;;19.30;99.90;;;;;;5096635;28;20039;-55
2023/08/15 07:09:12;;;;;;;14.27;5.70;;;19.40;99.90;;;;;;5095970;28;20087;-54
2023/08/15 07:11:37;;;;;;;11.88;5.00;;;19.50;99.90;;;;;;5095695;28;20402;-54
2023/08/15 07:14:03;;;;;;;13.23;5.60;;;19.60;99.90;;;;;;5095758;28;20044;-55
2023/08/15 07:16:29;;;;;;;12.32;5.03;;;19.70;99.90;;;;;;5076624;28;20370;-55
2023/08/15 07:18:55;;;;;;;17.13;5.85;;;19.80;99.90;;;;;;5098075;28;20047;-56
2023/08/15 07:21:20;;;;;;;13.85;4.95;;;19.90;99.90;;;;;;5094145;28;20130;-56
2023/08/15 07:23:46;;;;;;;11.45;5.15;;;20.00;99.90;;;;;;5077204;28;20039;-55
2023/08/15 07:26:13;;;;;;;13.55;4.55;;;20.10;99.90;;;;;;5096319;28;20044;-55
2023/08/15 07:28:39;;;;;;;13.38;4.45;;;20.10;99.90;;;;;;5077415;28;20044;-56
2023/08/15 07:31:05;;;;;;;10.88;4.80;;;20.20;99.90;;;;;;5095332;27;20059;-55
2023/08/15 07:33:31;;;;;;;13.85;4.60;;;20.20;99.90;;;;;;5096405;28;20121;-56
2023/08/15 07:35:57;;;;;;;14.75;4.28;;;20.30;99.90;;;;;;5094350;28;20039;-56
2023/08/15 07:38:23;;;;;;;13.88;4.47;;;20.40;99.90;;;;;;5059737;28;20039;-54
2023/08/15 07:40:49;;;;;;;12.55;4.45;;;20.50;99.90;;;;;;5097009;27;20405;-54
2023/08/15 07:43:15;;;;;;;13.23;3.75;;;20.60;99.90;;;;;;5077363;28;20147;-55
2023/08/15 07:45:40;;;;;;;10.27;3.58;;;20.70;99.90;;;;;;5077865;28;20044;-57
2023/08/15 07:48:06;;;;;;;12.68;4.13;;;20.80;99.90;;;;;;5060822;28;20052;-55
2023/08/15 07:50:32;;;;;;;11.90;3.72;;;20.90;99.90;;;;;;5095842;28;20035;-56
2023/08/15 07:52:58;;;;;;;10.13;3.83;;;21.00;99.90;;;;;;5095251;28;20047;-56
2023/08/15 07:55:25;;;;;;;13.63;3.60;;;21.10;99.90;;;;;;5094411;28;20036;-54
2023/08/15 07:57:51;;;;;;;7.68;3.00;;;21.20;99.90;;;;;;5096644;28;20040;-55
2023/08/15 08:00:17;;;;;;;13.30;3.30;;;21.30;99.90;;;;;;5094741;28;20036;-56
2023/08/15 08:02:44;;;;;;;8.85;3.00;;;21.50;99.90;;;;;;5095336;28;20043;-57
2023/08/15 08:05:11;;;;;;;8.25;2.95;;;21.60;99.90;;;;;;5077755;28;20404;-56
2023/08/15 08:07:41;;;;;;;8.52;2.80;;;21.70;99.90;;;;;;5092810;28;20040;-57
2023/08/15 08:10:07;;;;;;;8.95;2.88;;;21.70;99.90;;;;;;5097994;28;20047;-56
2023/08/15 08:12:35;;;;;;;10.30;3.47;;;21.60;99.90;;;;;;5100065;28;20083;-56
2023/08/15 08:15:02;;;;;;;7.85;3.22;;;21.70;99.90;;;;;;5097880;28;20052;-55
2023/08/15 08:17:27;;;;;;;7.40;2.78;;;21.70;99.90;;;;;;5099656;28;20047;-55
2023/08/15 08:19:54;;;;;;;8.23;2.70;;;21.80;99.90;;;;;;5097950;28;20043;-56
2023/08/15 08:22:20;;;;;;;8.60;2.35;;;22.00;99.90;;;;;;5098535;28;20466;-57
2023/08/15 08:24:47;;;;;;;10.80;2.58;;;22.10;99.90;;;;;;5100191;28;20035;-56
2023/08/15 08:27:14;;;;;;;8.38;2.67;;;22.20;99.90;;;;;;5099217;28;20043;-56
2023/08/15 08:29:39;;;;;;;6.82;3.00;;;22.30;99.90;;;;;;5099808;28;20050;-56
2023/08/15 08:32:05;;;;;;;9.65;2.20;;;22.30;99.90;;;;;;5080626;28;20498;-56
2023/08/15 08:34:31;;;;;;;5.50;1.90;;;22.40;99.90;;;;;;5098379;28;20067;-55
2023/08/15 08:36:57;;;;;;;7.35;2.47;;;22.40;99.90;;;;;;5063665;28;20040;-54
2023/08/15 08:39:22;;;;;;;9.85;2.50;;;22.50;99.90;;;;;;5097880;28;20032;-57
2023/08/15 08:41:48;;;;;;;7.75;2.47;;;22.60;99.90;;;;;;5080815;28;20090;-55
2023/08/15 08:44:17;;;;;;;9.45;2.63;;;22.60;99.90;;;;;;5100109;28;20576;-56
2023/08/15 08:46:44;;;;;;;8.38;2.55;;;22.70;99.90;;;;;;5099041;28;20085;-56
2023/08/15 08:49:11;;;;;;;9.00;2.80;;;22.70;99.90;;;;;;5081480;28;20040;-56
2023/08/15 08:51:37;;;;;;;9.10;2.25;;;22.70;99.90;;;;;;5098852;28;20036;-54
2023/08/15 08:54:03;;;;;;;6.18;2.05;;;22.80;99.90;;;;;;5097608;28;20082;-56
2023/08/15 08:56:31;;;;;;;6.72;2.35;;;22.90;99.90;;;;;;5098364;28;20070;-56
2023/08/15 08:59:04;;;;;;;5.80;2.22;;;23.00;99.90;;;;;;5080553;28;20052;-55
2023/08/15 09:01:31;;;;;;;4.82;1.90;;;23.10;99.90;;;;;;5097145;28;20402;-56
2023/08/15 09:03:57;;;;;;;7.07;1.98;;;23.20;99.90;;;;;;5099509;28;20035;-56
2023/08/15 09:06:27;;;;;;;6.50;1.95;;;23.20;99.90;;;;;;5085786;28;20045;-56
2023/08/15 09:08:53;;;;;;;6.85;1.73;;;23.30;99.90;;;;;;5098709;28;20038;-57
2023/08/15 09:11:20;;;;;;;6.43;1.80;;;23.30;99.90;;;;;;5080223;28;20067;-56
2023/08/15 09:13:47;;;;;;;4.53;1.63;;;23.20;99.90;;;;;;5098595;28;20042;-57
2023/08/15 09:16:13;;;;;;;4.57;1.60;;;23.10;99.90;;;;;;5099559;28;20078;-55
2023/08/15 09:18:39;;;;;;;5.07;1.80;;;23.00;99.90;;;;;;5097486;28;20097;-56
2023/08/15 09:21:05;;;;;;;4.80;1.65;;;23.00;99.90;;;;;;5098731;28;20042;-55
2023/08/15 09:23:31;;;;;;;3.50;1.40;;;23.00;99.90;;;;;;5099108;28;20048;-55
2023/08/15 09:25:58;;;;;;;4.15;1.50;;;23.00;99.90;;;;;;5096998;28;20040;-56
2023/08/15 09:28:23;;;;;;;4.85;1.67;;;23.10;99.90;;;;;;5086859;28;20109;-56
2023/08/15 09:30:53;;;;;;;5.45;1.58;;;23.20;99.90;;;;;;5079665;28;20131;-55
2023/08/15 09:33:19;;;;;;;8.93;1.80;;;23.40;99.90;;;;;;5096839;28;20151;-56
2023/08/15 09:35:45;;;;;;;5.82;2.00;;;23.60;99.90;;;;;;5098419;27;20039;-57
2023/08/15 09:38:11;;;;;;;4.13;1.40;;;23.70;99.90;;;;;;5097623;28;20087;-56
2023/08/15 09:40:37;;;;;;;4.82;1.80;;;23.80;99.90;;;;;;5097323;28;20043;-54
2023/08/15 09:43:03;;;;;;;4.78;1.88;;;24.00;99.90;;;;;;5099085;28;20375;-56
2023/08/15 09:45:29;;;;;;;5.45;2.03;;;24.10;99.90;;;;;;5097074;28;20494;-57
2023/08/15 09:47:55;;;;;;;5.47;1.92;;;24.10;99.90;;;;;;5098958;28;20080;-55
2023/08/15 09:50:22;;;;;;;4.10;1.42;;;24.10;99.90;;;;;;5097477;28;20043;-55
2023/08/15 09:52:48;;;;;;;4.78;1.48;;;24.40;99.90;;;;;;5097890;28;20771;-56
2023/08/15 09:55:15;;;;;;;4.22;1.48;;;24.50;99.90;;;;;;5100096;28;20051;-56
2023/08/15 09:57:43;;;;;;;4.30;1.45;;;24.60;99.90;;;;;;5096084;28;20108;-55
2023/08/15 10:00:17;;;;;;;6.95;1.35;;;24.70;99.80;;;;;;5096088;28;20043;-57
2023/08/15 10:02:54;;;;;;;6.88;1.30;;;24.80;99.50;;;;;;5097836;28;20036;-56
2023/08/15 10:05:23;;;;;;;2.80;1.55;;;24.80;99.50;;;;;;5078366;28;20362;-56
2023/08/15 10:07:49;;;;;;;5.00;1.33;;;25.00;99.40;;;;;;5095730;28;20075;-56
2023/08/15 10:10:16;;;;;;;4.15;1.27;;;25.10;98.80;;;;;;5097942;28;20115;-56
2023/08/15 10:12:45;;;;;;;4.93;1.55;;;25.20;98.10;;;;;;5097118;28;20407;-56
2023/08/15 10:15:11;;;;;;;5.97;2.13;;;25.20;97.90;;;;;;5077847;28;20044;-57
2023/08/15 10:17:38;;;;;;;5.22;1.95;;;25.10;97.60;;;;;;5097530;28;20050;-55
2023/08/15 10:20:10;;;;;;;6.70;2.17;;;24.90;97.40;;;;;;5095746;28;20124;-57
2023/08/15 10:22:39;;;;;;;6.35;1.70;;;24.70;97.50;;;;;;5095559;28;20089;-55
2023/08/15 10:25:35;;;;;;;4.95;2.05;;;24.60;97.60;;;;;;5097323;28;20039;-55
2023/08/15 10:28:08;;;;;;;6.10;2.15;;;24.70;98.00;;;;;;5096375;28;20054;-55
2023/08/15 10:30:39;;;;;;;9.60;2.65;;;24.80;97.70;;;;;;5097671;28;20128;-55
2023/08/15 10:33:18;;;;;;;6.68;2.33;;;25.00;97.60;;;;;;5096910;28;20043;-57
2023/08/15 10:35:55;;;;;;;6.25;1.63;;;25.20;97.50;;;;;;5097045;27;20465;-55
2023/08/15 10:38:26;;;;;;;2.58;1.20;;;25.40;97.10;;;;;;5095970;28;20084;-56
2023/08/15 10:41:00;;;;;;;4.85;1.70;;;25.40;96.50;;;;;;5095498;28;20039;-56
2023/08/15 10:43:28;;;;;;;5.20;1.77;;;25.50;96.20;;;;;;5097217;28;20047;-56
2023/08/15 10:45:57;;;;;;;2.90;1.20;;;25.50;96.10;;;;;;5082999;28;20118;-56
2023/08/15 10:48:53;;;;;;;4.20;1.42;;;25.50;95.60;;;;;;5095603;28;20086;-57
2023/08/15 10:51:31;;;;;;;4.07;1.30;;;25.30;95.50;;;;;;5078881;28;20728;-56
2023/08/15 10:54:11;;;;;;;6.45;1.60;;;25.30;96.00;;;;;;5094764;28;20150;-57
2023/08/15 10:56:38;;;;;;;4.78;1.55;;;25.40;95.50;;;;;;5067903;28;20401;-57
2023/08/15 10:59:12;;;;;;;4.55;1.42;;;25.50;95.40;;;;;;5095939;28;20058;-57
2023/08/15 11:01:40;;;;;;;2.80;1.27;;;25.50;95.10;;;;;;5096544;28;20482;-56
2023/08/15 11:04:10;;;;;;;5.55;1.58;;;25.60;95.50;;;;;;5097385;28;20043;-57
2023/08/15 11:06:42;;;;;;;5.78;1.67;;;25.70;95.20;;;;;;5096038;28;21975;-56
2023/08/15 11:09:10;;;;;;;3.80;1.30;;;25.80;94.70;;;;;;5096076;28;20053;-56
2023/08/15 11:11:36;;;;;;;4.68;1.40;;;25.80;94.40;;;;;;5094580;28;20367;-57
2023/08/15 11:14:02;;;;;;;2.50;1.10;;;25.90;94.20;;;;;;5096100;28;20032;-56
2023/08/15 11:16:27;;;;;;;3.65;1.13;;;26.00;93.50;;;;;;5095903;28;20478;-58
2023/08/15 11:18:56;;;;;;;6.10;1.42;;;26.20;92.00;;;;;;5094995;28;20082;-57
2023/08/15 11:21:27;;;;;;;3.35;1.02;;;26.20;90.80;;;;;;5095125;28;20122;-58
2023/08/15 11:23:54;;;;;;;2.95;0.98;;;26.20;89.40;;;;;;5079432;28;20046;-58
2023/08/15 11:26:23;;;;;;;5.25;1.15;;;26.20;89.70;;;;;;5095152;28;20039;-57
2023/08/15 11:28:49;;;;;;;4.65;1.15;;;26.20;90.00;;;;;;5077921;28;20466;-57
2023/08/15 11:31:16;;;;;;;2.88;1.10;;;26.20;89.20;;;;;;5096946;28;20056;-57
2023/08/15 11:33:42;;;;;;;5.70;1.20;;;26.20;89.00;;;;;;5076955;28;20810;-56
2023/08/15 11:36:11;;;;;;;4.43;1.20;;;26.20;88.70;;;;;;5095323;28;20082;-56
2023/08/15 11:38:38;;;;;;;4.18;1.10;;;26.20;88.20;;;;;;5095089;28;20363;-57
2023/08/15 11:41:05;;;;;;;6.88;1.38;;;26.10;88.50;;;;;;5096218;28;20044;-57
2023/08/15 11:43:33;;;;;;;4.75;1.17;;;26.10;88.90;;;;;;5084597;28;20123;-58
2023/08/15 11:46:03;;;;;;;4.28;1.40;;;26.20;89.30;;;;;;5094621;28;20556;-56
2023/08/15 11:48:31;;;;;;;5.38;1.40;;;26.10;89.20;;;;;;5095037;28;20108;-58
2023/08/15 11:50:57;;;;;;;3.85;1.30;;;26.10;89.00;;;;;;5095140;28;20046;-57
2023/08/15 11:53:23;;;;;;;4.28;1.60;;;26.10;89.50;;;;;;5095063;28;20590;-58
2023/08/15 11:55:49;;;;;;;5.07;1.60;;;26.10;90.20;;;;;;5096223;28;20031;-57
2023/08/15 11:58:32;;;;;;;4.85;1.42;;;26.10;90.90;;;;;;5096476;28;20053;-56
2023/08/15 12:01:09;;;;;;;3.28;1.40;;;26.20;91.00;;;;;;5094893;28;20043;-58
2023/08/15 12:03:36;;;;;;;6.80;1.50;;;26.30;90.70;;;;;;5095381;28;20504;-57
2023/08/15 12:06:06;;;;;;;4.13;1.40;;;26.40;90.50;;;;;;5095343;28;20081;-56
2023/08/15 12:08:32;;;;;;;5.00;1.50;;;26.60;90.80;;;;;;5076710;28;20040;-57
2023/08/15 12:11:01;;;;;;;3.47;1.48;;;26.70;91.30;;;;;;5093902;28;20040;-58
2023/08/15 12:13:32;;;;;;;4.13;1.67;;;26.90;91.30;;;;;;5095403;28;20119;-58
2023/08/15 12:15:59;;;;;;;2.28;1.23;;;26.90;90.40;;;;;;5095979;28;20479;-56
2023/08/15 12:18:25;;;;;;;3.40;1.17;;;26.80;90.00;;;;;;5093470;28;20482;-55
2023/08/15 12:20:51;;;;;;;4.65;1.55;;;26.70;90.20;;;;;;5094940;28;20055;-57
2023/08/15 12:23:17;;;;;;;4.72;1.63;;;26.70;90.20;;;;;;5094402;28;20108;-57
2023/08/15 12:25:42;;;;;;;10.40;1.52;;;26.60;90.10;;;;;;5095289;28;20036;-56
2023/08/15 12:28:08;;;;;;;6.28;1.65;;;26.40;90.10;;;;;;5095622;28;20044;-56
2023/08/15 12:30:34;;;;;;;6.20;1.80;;;26.30;90.20;;;;;;5094390;28;20050;-58
2023/08/15 12:33:01;;;;;;;5.47;1.50;;;26.10;90.10;;;;;;5078332;28;20106;-57
2023/08/15 12:35:26;;;;;;;5.22;1.40;;;25.90;90.30;;;;;;5095012;28;20158;-56
2023/08/15 12:37:52;;;;;;;6.85;1.60;;;25.80;90.70;;;;;;5095723;28;20127;-57
2023/08/15 12:40:18;;;;;;;7.55;2.10;;;25.80;91.00;;;;;;5095004;28;20040;-56